Time;durP1;ratioP1;P1;durP2;ratioP2;P2;SDS_P1;SDS_P2;PMS_P1;PMS_P2;Temp;Humidity;BMP_temperature;BMP_pressure;BME280_temperature;BME280_humidity;BME280_pressure;Samples;Min_cycle;Max_cycle;Signal;HPM_P1;HPM_P2
2023/03/16 06:01:12;;;;;;;10.47;3.10;;;-0.20;99.90;;;;;;6315572;22;20535;-90
2023/03/16 06:03:41;;;;;;;9.20;3.03;;;-0.10;99.90;;;;;;6339134;22;20181;-91
2023/03/16 06:06:08;;;;;;;12.77;4.10;;;0.00;99.90;;;;;;6338932;22;20219;-89
2023/03/16 06:08:35;;;;;;;9.93;2.83;;;0.00;99.90;;;;;;6339279;22;20194;-89
2023/03/16 06:11:03;;;;;;;11.17;3.70;;;0.10;99.90;;;;;;6339391;22;20164;-89
2023/03/16 06:13:29;;;;;;;11.83;3.40;;;0.20;99.90;;;;;;6339520;22;20177;-92
2023/03/16 06:15:56;;;;;;;7.20;2.70;;;0.30;99.90;;;;;;6340326;22;20623;-91
2023/03/16 06:18:24;;;;;;;12.13;3.50;;;0.30;99.90;;;;;;6341562;22;20158;-90
2023/03/16 06:20:51;;;;;;;8.33;3.00;;;0.40;99.90;;;;;;6340475;22;20205;-89
2023/03/16 06:23:19;;;;;;;6.67;2.80;;;0.40;99.90;;;;;;6339652;22;20619;-86
2023/03/16 06:25:47;;;;;;;10.80;2.80;;;0.50;99.90;;;;;;6339549;22;20192;-89
2023/03/16 06:28:14;;;;;;;23.70;8.90;;;0.60;99.90;;;;;;6339961;22;20167;-88
2023/03/16 06:30:41;;;;;;;8.13;2.60;;;0.60;99.90;;;;;;6339787;22;20192;-89
2023/03/16 06:33:08;;;;;;;8.23;3.70;;;0.70;99.90;;;;;;6340096;22;20638;-89
2023/03/16 06:35:36;;;;;;;11.07;3.00;;;0.80;99.90;;;;;;6340169;22;20169;-89
2023/03/16 06:38:03;;;;;;;8.00;2.50;;;0.90;99.90;;;;;;6339729;22;20669;-89
2023/03/16 06:40:30;;;;;;;10.53;3.90;;;1.00;99.90;;;;;;6339888;22;20166;-89
2023/03/16 06:42:57;;;;;;;21.80;8.17;;;1.20;99.90;;;;;;6339807;22;20170;-89
2023/03/16 06:45:24;;;;;;;20.07;6.97;;;1.40;99.90;;;;;;6339560;22;20174;-89
2023/03/16 06:47:51;;;;;;;10.37;3.50;;;1.60;1.00;;;;;;6339450;22;20179;-89
2023/03/16 06:50:18;;;;;;;7.40;3.63;;;1.60;1.00;;;;;;6340055;22;20192;-90
2023/03/16 06:52:46;;;;;;;13.03;3.43;;;1.60;1.00;;;;;;6339704;22;20171;-90
2023/03/16 06:55:13;;;;;;;8.83;3.30;;;1.60;1.00;;;;;;6339721;22;20175;-90
2023/03/16 06:57:40;;;;;;;10.97;4.23;;;1.60;1.00;;;;;;6339965;22;20179;-91
2023/03/16 07:00:09;;;;;;;11.43;3.70;;;1.70;1.00;;;;;;6339484;22;20635;-90
2023/03/16 07:02:38;;;;;;;30.27;12.33;;;1.70;1.00;;;;;;6338268;22;20230;-90
2023/03/16 07:05:06;;;;;;;13.27;5.40;;;1.70;1.00;;;;;;6339371;22;20171;-90
2023/03/16 07:07:33;;;;;;;17.83;6.70;;;1.80;1.00;;;;;;6339211;22;20171;-90
2023/03/16 07:10:01;;;;;;;11.93;3.17;;;1.90;1.00;;;;;;6339055;22;20191;-89
2023/03/16 07:12:28;;;;;;;9.20;3.07;;;1.90;1.00;;;;;;6339433;22;20171;-90
2023/03/16 07:14:54;;;;;;;9.00;3.00;;;2.00;1.00;;;;;;6339542;22;20166;-89
2023/03/16 07:17:21;;;;;;;9.10;3.87;;;2.10;1.00;;;;;;6339600;22;20175;-90
2023/03/16 07:19:48;;;;;;;12.53;4.13;;;2.20;1.00;;;;;;6338845;22;20573;-89
2023/03/16 07:22:15;;;;;;;7.90;3.23;;;2.30;1.00;;;;;;6339363;22;20178;-89
2023/03/16 07:24:43;;;;;;;15.20;4.43;;;2.50;1.00;;;;;;6339169;22;20296;-89
2023/03/16 07:27:11;;;;;;;9.40;3.40;;;2.70;1.00;;;;;;6338568;22;20174;-89
2023/03/16 07:29:38;;;;;;;19.33;8.00;;;3.10;1.00;;;;;;6338949;22;20686;-89
2023/03/16 07:32:05;;;;;;;14.13;3.87;;;3.40;99.90;;;;;;6339017;22;20195;-89
2023/03/16 07:34:32;;;;;;;10.47;4.17;;;3.50;99.90;;;;;;6339459;22;20196;-89
2023/03/16 07:36:59;;;;;;;7.50;3.10;;;3.70;1.00;;;;;;6339320;22;20219;-89
2023/03/16 07:39:27;;;;;;;17.13;4.37;;;3.70;1.00;;;;;;6339309;22;20471;-90
2023/03/16 07:41:54;;;;;;;12.80;3.83;;;3.60;1.00;;;;;;6339357;22;20166;-89
2023/03/16 07:44:22;;;;;;;7.87;3.03;;;3.70;1.00;;;;;;6339233;22;20166;-90
2023/03/16 07:46:49;;;;;;;11.60;3.20;;;3.70;99.90;;;;;;6339317;22;20172;-90
2023/03/16 07:49:16;;;;;;;15.47;2.93;;;3.70;1.00;;;;;;6339396;22;20184;-90
2023/03/16 07:51:43;;;;;;;7.20;2.73;;;3.70;1.00;;;;;;6339547;22;20219;-90
2023/03/16 07:54:10;;;;;;;6.33;2.73;;;3.80;1.00;;;;;;6339210;22;20158;-89
2023/03/16 07:56:36;;;;;;;7.20;2.87;;;3.80;1.00;;;;;;6338921;22;20170;-90
2023/03/16 07:59:04;;;;;;;5.80;2.70;;;3.90;99.90;;;;;;6338965;22;20172;-90
2023/03/16 08:01:33;;;;;;;12.80;3.40;;;4.00;99.90;;;;;;6339024;22;20212;-90
2023/03/16 08:04:00;;;;;;;6.70;3.60;;;4.10;1.00;;;;;;6339113;22;20166;-88
2023/03/16 08:06:27;;;;;;;7.33;2.23;;;4.20;1.00;;;;;;6339283;22;20482;-89
2023/03/16 08:08:54;;;;;;;6.37;2.20;;;4.20;99.90;;;;;;6338915;22;20473;-89
2023/03/16 08:11:23;;;;;;;12.53;2.40;;;4.30;99.90;;;;;;6338334;22;20516;-90
2023/03/16 08:13:52;;;;;;;8.10;2.70;;;4.10;92.40;;;;;;6339135;22;20169;-89
2023/03/16 08:16:20;;;;;;;3.40;2.00;;;4.00;99.90;;;;;;6338891;22;20169;-90
2023/03/16 08:18:49;;;;;;;11.17;2.90;;;3.90;99.90;;;;;;6338748;22;20193;-90
2023/03/16 08:21:16;;;;;;;9.33;3.33;;;3.80;99.90;;;;;;6339122;22;20165;-90
2023/03/16 08:23:48;;;;;;;14.73;7.90;;;3.80;99.90;;;;;;6339187;22;20224;-90
2023/03/16 08:26:15;;;;;;;11.57;7.80;;;3.80;99.90;;;;;;6338952;22;20150;-91
2023/03/16 08:28:44;;;;;;;7.63;5.50;;;3.80;99.90;;;;;;6338724;22;20193;-90
2023/03/16 08:31:12;;;;;;;9.97;5.00;;;3.80;99.90;;;;;;6338647;22;20716;-89
2023/03/16 08:33:40;;;;;;;24.93;10.73;;;3.80;99.90;;;;;;6339035;22;20166;-90
2023/03/16 08:36:12;;;;;;;28.03;9.43;;;3.90;99.90;;;;;;6339058;22;20244;-89
2023/03/16 08:38:39;;;;;;;47.13;16.47;;;3.90;99.90;;;;;;6339101;22;20267;-89
2023/03/16 08:41:06;;;;;;;24.77;10.30;;;4.00;99.90;;;;;;6338442;22;20161;-90
2023/03/16 08:43:33;;;;;;;38.00;13.73;;;4.00;3.40;;;;;;6339084;22;20166;-89
2023/03/16 08:46:03;;;;;;;21.33;8.53;;;4.10;99.90;;;;;;6338737;22;20166;-90
2023/03/16 08:48:29;;;;;;;21.17;8.50;;;4.20;1.00;;;;;;6339152;22;20169;-90
2023/03/16 08:50:56;;;;;;;12.60;4.90;;;4.20;1.00;;;;;;6338605;22;20186;-89
2023/03/16 08:53:24;;;;;;;16.80;6.13;;;4.20;1.00;;;;;;6338191;22;20174;-89
2023/03/16 08:55:51;;;;;;;18.93;5.57;;;4.20;1.00;;;;;;6338993;22;20167;-90
2023/03/16 08:58:18;;;;;;;20.87;8.87;;;4.30;1.00;;;;;;6338913;22;20166;-90
2023/03/16 09:00:47;;;;;;;18.37;5.90;;;4.30;99.90;;;;;;6338926;22;20185;-90
2023/03/16 09:03:14;;;;;;;12.67;4.57;;;4.30;99.90;;;;;;6338490;22;20160;-90
2023/03/16 09:05:41;;;;;;;11.43;4.70;;;4.30;99.90;;;;;;6339545;22;20166;-90
2023/03/16 09:08:08;;;;;;;8.50;3.53;;;4.40;99.90;;;;;;6337480;22;20205;-89
2023/03/16 09:10:36;;;;;;;8.63;4.37;;;4.40;99.90;;;;;;6338827;22;20198;-90
2023/03/16 09:13:03;;;;;;;14.77;5.57;;;4.50;99.90;;;;;;6339898;22;20177;-90
2023/03/16 09:15:30;;;;;;;11.20;4.43;;;4.50;99.90;;;;;;6339797;22;20173;-90
2023/03/16 09:17:59;;;;;;;10.90;4.80;;;4.70;99.90;;;;;;6339291;22;20170;-90
2023/03/16 09:20:26;;;;;;;4.90;2.60;;;4.70;1.00;;;;;;6339484;22;20196;-89
2023/03/16 09:22:54;;;;;;;6.17;2.70;;;4.70;1.00;;;;;;6339846;22;20177;-90
2023/03/16 09:25:21;;;;;;;15.33;5.73;;;4.70;1.00;;;;;;6341116;22;20283;-90
2023/03/16 09:27:49;;;;;;;8.27;2.47;;;4.80;1.00;;;;;;6340000;22;20166;-91
2023/03/16 09:30:17;;;;;;;4.33;1.97;;;4.90;1.00;;;;;;6339602;22;20182;-91
2023/03/16 09:32:47;;;;;;;7.00;2.57;;;5.00;1.00;;;;;;6340699;22;20604;-91
2023/03/16 09:35:14;;;;;;;5.30;1.90;;;5.20;1.00;;;;;;6340496;22;20177;-91
2023/03/16 09:37:40;;;;;;;8.67;3.60;;;5.20;1.00;;;;;;6340064;22;20170;-91
2023/03/16 09:40:13;;;;;;;8.00;3.10;;;5.30;1.00;;;;;;6340433;22;20201;-91
2023/03/16 09:42:48;;;;;;;5.33;2.77;;;5.50;1.00;;;;;;6340563;22;20144;-91
2023/03/16 09:45:24;;;;;;;8.13;3.60;;;5.50;1.00;;;;;;6340654;22;20226;-91
2023/03/16 09:47:55;;;;;;;5.27;2.70;;;5.60;1.00;;;;;;6340999;22;20150;-91
2023/03/16 09:50:26;;;;;;;5.33;2.10;;;5.70;1.00;;;;;;6340969;22;20177;-90
2023/03/16 09:53:00;;;;;;;5.30;1.63;;;5.80;1.00;;;;;;6339371;22;20158;-91
2023/03/16 09:55:30;;;;;;;7.47;1.97;;;6.00;1.00;;;;;;6340799;22;20158;-91
2023/03/16 09:57:58;;;;;;;5.63;2.60;;;6.10;99.90;;;;;;6340532;22;20169;-91
2023/03/16 10:00:30;;;;;;;7.53;3.00;;;6.10;99.90;;;;;;6340579;22;20651;-92
2023/03/16 10:03:11;;;;;;;7.50;2.07;;;6.10;99.90;;;;;;6340684;22;20159;-92
2023/03/16 10:05:39;;;;;;;6.77;1.80;;;6.10;99.90;;;;;;6341497;22;20156;-92
2023/03/16 10:08:12;;;;;;;6.60;3.07;;;6.40;99.90;;;;;;6340965;22;20172;-92
2023/03/16 10:11:01;;;;;;;5.60;1.83;;;6.40;99.90;;;;;;6341034;22;20177;-90
2023/03/16 10:13:36;;;;;;;5.50;2.47;;;6.40;99.90;;;;;;6315069;22;20482;-91
2023/03/16 10:16:09;;;;;;;4.70;2.60;;;6.40;99.90;;;;;;6341238;22;20213;-92
2023/03/16 10:18:41;;;;;;;5.67;1.70;;;6.30;99.90;;;;;;6341359;22;20156;-92
2023/03/16 10:21:13;;;;;;;6.40;2.20;;;6.40;99.90;;;;;;6341125;22;20147;-93
2023/03/16 10:23:42;;;;;;;4.63;1.90;;;6.50;99.90;;;;;;6341357;22;20158;-92
2023/03/16 10:26:14;;;;;;;7.50;1.77;;;6.70;99.90;;;;;;6341140;22;20168;-92
2023/03/16 10:28:42;;;;;;;4.57;1.90;;;6.90;99.90;;;;;;6341047;22;20158;-92
2023/03/16 10:31:11;;;;;;;4.43;1.90;;;7.00;99.90;;;;;;6341256;22;20200;-93
2023/03/16 10:33:39;;;;;;;4.97;1.87;;;7.00;99.90;;;;;;6341213;22;20176;-92
2023/03/16 10:36:14;;;;;;;5.30;1.80;;;6.90;99.90;;;;;;6341222;22;20234;-92
2023/03/16 10:38:45;;;;;;;5.13;1.83;;;6.90;99.90;;;;;;6341230;22;20154;-93
2023/03/16 10:41:30;;;;;;;5.00;1.70;;;7.00;99.90;;;;;;6340825;22;20189;-92
2023/03/16 10:44:05;;;;;;;6.47;2.83;;;6.80;99.90;;;;;;6341396;22;20210;-92
2023/03/16 10:46:37;;;;;;;7.93;3.20;;;6.80;99.90;;;;;;6341177;22;20177;-92
2023/03/16 10:49:04;;;;;;;8.50;2.47;;;6.80;99.90;;;;;;6341294;22;20195;-91
2023/03/16 10:51:33;;;;;;;5.37;1.73;;;6.90;99.90;;;;;;6340656;22;20186;-92
2023/03/16 10:54:09;;;;;;;5.90;1.90;;;7.00;99.90;;;;;;6341105;22;20170;-92
2023/03/16 10:56:37;;;;;;;5.50;2.40;;;7.10;99.90;;;;;;6341377;22;20659;-91
2023/03/16 10:59:15;;;;;;;3.77;1.57;;;7.20;99.90;;;;;;6341082;22;20553;-92
2023/03/16 11:01:48;;;;;;;5.33;2.00;;;7.40;99.90;;;;;;6341087;22;20562;-92
2023/03/16 11:04:16;;;;;;;6.20;1.47;;;7.60;99.90;;;;;;6341140;22;20157;-92
2023/03/16 11:06:54;;;;;;;4.43;1.67;;;7.70;99.90;;;;;;6340720;22;20230;-92
2023/03/16 11:09:24;;;;;;;6.10;2.23;;;7.70;99.90;;;;;;6340770;22;20154;-92
2023/03/16 11:11:51;;;;;;;12.33;5.87;;;7.70;99.90;;;;;;6341181;22;20178;-92
2023/03/16 11:14:22;;;;;;;6.37;2.37;;;7.70;99.90;;;;;;6341282;22;20173;-92
2023/03/16 11:16:57;;;;;;;4.00;1.90;;;7.50;99.90;;;;;;6341691;22;20146;-92
2023/03/16 11:19:28;;;;;;;7.17;2.50;;;7.40;99.90;;;;;;6340792;22;20207;-92
2023/03/16 11:22:00;;;;;;;7.67;1.80;;;7.30;99.90;;;;;;6340607;22;20150;-92
2023/03/16 11:24:34;;;;;;;4.70;1.80;;;7.20;99.90;;;;;;6341062;22;20193;-91
2023/03/16 11:27:04;;;;;;;6.30;1.80;;;7.30;99.90;;;;;;6341494;22;20196;-92
2023/03/16 11:29:44;;;;;;;29.37;6.10;;;7.30;99.90;;;;;;6340980;22;20154;-93
2023/03/16 11:32:16;;;;;;;37.13;15.03;;;7.40;99.90;;;;;;6340609;22;20170;-92
2023/03/16 11:34:45;;;;;;;26.13;11.50;;;7.50;99.90;;;;;;6340385;22;20151;-91
2023/03/16 11:37:21;;;;;;;74.67;22.97;;;7.60;99.90;;;;;;6341077;22;20194;-92
2023/03/16 11:39:57;;;;;;;9.53;3.30;;;7.70;99.90;;;;;;6340927;22;20151;-92
2023/03/16 11:42:29;;;;;;;6.37;2.10;;;7.70;99.90;;;;;;6340778;22;20211;-92
2023/03/16 11:45:08;;;;;;;8.20;2.83;;;7.70;99.90;;;;;;6340846;22;20157;-91
2023/03/16 11:47:55;;;;;;;8.60;3.87;;;7.80;99.90;;;;;;6340195;22;20162;-91
2023/03/16 11:50:28;;;;;;;10.70;5.80;;;7.80;99.90;;;;;;6340792;22;20150;-92
2023/03/16 11:53:03;;;;;;;10.07;5.50;;;7.90;99.90;;;;;;6340133;22;20600;-91
2023/03/16 11:55:39;;;;;;;7.37;3.57;;;7.90;97.50;;;;;;6340698;22;20154;-92
2023/03/16 11:58:30;;;;;;;24.97;10.77;;;8.00;94.30;;;;;;6340263;22;20442;-92
2023/03/16 12:01:07;;;;;;;18.40;9.87;;;8.10;94.90;;;;;;6340488;22;20190;-92
2023/03/16 12:04:08;;;;;;;11.03;5.67;;;8.30;86.30;;;;;;6340847;22;20246;-92
2023/03/16 12:06:49;;;;;;;11.63;5.13;;;8.50;83.50;;;;;;6340480;22;20166;-92
2023/03/16 12:09:50;;;;;;;12.10;5.27;;;8.60;94.80;;;;;;6340786;22;20455;-91
2023/03/16 12:12:29;;;;;;;6.13;2.93;;;8.70;66.90;;;;;;6340400;22;20258;-92
2023/03/16 12:15:10;;;;;;;6.67;3.70;;;8.80;56.60;;;;;;6340177;22;20186;-92
2023/03/16 12:17:38;;;;;;;7.47;2.20;;;8.80;53.00;;;;;;6340441;22;20149;-92
2023/03/16 12:20:16;;;;;;;10.97;5.03;;;8.80;52.70;;;;;;6339857;22;20512;-92
2023/03/16 12:22:46;;;;;;;12.37;5.40;;;8.90;54.00;;;;;;6340448;22;20183;-92
2023/03/16 12:25:19;;;;;;;8.40;4.13;;;9.10;50.50;;;;;;6340402;22;20167;-92
2023/03/16 12:27:49;;;;;;;9.50;5.97;;;9.10;42.20;;;;;;6340184;22;20609;-91
2023/03/16 12:30:29;;;;;;;11.97;6.43;;;9.00;37.20;;;;;;6340347;22;20167;-91
2023/03/16 12:33:01;;;;;;;14.00;9.00;;;8.80;33.90;;;;;;6340235;22;20239;-92
2023/03/16 12:35:40;;;;;;;20.20;11.50;;;8.60;32.40;;;;;;6340645;22;20159;-93
2023/03/16 12:38:25;;;;;;;8.13;5.20;;;8.50;34.20;;;;;;6340356;22;20151;-91
2023/03/16 12:41:05;;;;;;;5.50;3.13;;;8.40;34.80;;;;;;6318255;22;20170;-91
2023/03/16 12:43:41;;;;;;;43.77;27.43;;;8.40;33.00;;;;;;6340129;22;20151;-92
2023/03/16 12:46:12;;;;;;;17.60;9.37;;;8.40;33.60;;;;;;6342100;22;20157;-91
2023/03/16 12:48:45;;;;;;;14.97;8.77;;;8.40;34.00;;;;;;6341867;22;20509;-92
2023/03/16 12:51:14;;;;;;;12.20;6.20;;;8.40;31.00;;;;;;6341092;22;20173;-91
2023/03/16 12:53:45;;;;;;;25.03;12.23;;;8.40;29.40;;;;;;6341843;22;20168;-92
2023/03/16 12:56:15;;;;;;;9.20;3.67;;;8.30;31.10;;;;;;6342223;22;20243;-91
2023/03/16 12:58:45;;;;;;;10.13;3.63;;;8.20;30.60;;;;;;6341859;22;20631;-92
2023/03/16 13:01:14;;;;;;;18.90;9.80;;;8.20;28.10;;;;;;6341487;22;20198;-91
2023/03/16 13:03:42;;;;;;;17.63;7.47;;;8.20;51.80;;;;;;6341940;22;20166;-92
2023/03/16 13:06:20;;;;;;;9.80;4.17;;;8.20;28.80;;;;;;6341886;22;20206;-91
2023/03/16 13:08:51;;;;;;;11.97;3.90;;;8.20;29.60;;;;;;6341695;22;20155;-92
2023/03/16 13:11:19;;;;;;;12.30;3.73;;;8.30;28.20;;;;;;6341841;22;20254;-91
2023/03/16 13:13:51;;;;;;;6.43;3.73;;;8.30;26.60;;;;;;6341788;22;20238;-92
2023/03/16 13:16:27;;;;;;;7.90;2.77;;;8.20;26.30;;;;;;6341877;22;20166;-92
2023/03/16 13:18:54;;;;;;;9.70;2.80;;;8.20;26.70;;;;;;6341885;22;20237;-92
2023/03/16 13:21:36;;;;;;;9.20;3.17;;;8.20;24.70;;;;;;6342408;22;20251;-92
2023/03/16 13:24:21;;;;;;;11.87;6.03;;;8.20;27.00;;;;;;6341933;22;20164;-92
2023/03/16 13:26:51;;;;;;;39.63;22.20;;;8.20;27.60;;;;;;6341933;22;20154;-92
2023/03/16 13:29:22;;;;;;;5.67;2.50;;;8.20;24.20;;;;;;6341107;22;20633;-92
2023/03/16 13:31:50;;;;;;;15.33;8.70;;;8.20;22.30;;;;;;6341943;22;20205;-92
2023/03/16 13:34:21;;;;;;;9.00;5.70;;;8.20;21.60;;;;;;6341840;22;20158;-92
2023/03/16 13:36:55;;;;;;;9.50;3.90;;;8.20;21.80;;;;;;6341530;22;20237;-91
2023/03/16 13:39:23;;;;;;;8.33;4.23;;;8.30;22.60;;;;;;6341763;22;20164;-92
2023/03/16 13:41:59;;;;;;;9.20;4.93;;;8.30;23.70;;;;;;6341392;22;20168;-92
2023/03/16 13:44:27;;;;;;;5.13;2.83;;;8.40;25.60;;;;;;6341617;22;20223;-91
2023/03/16 13:46:54;;;;;;;7.27;2.80;;;8.30;21.80;;;;;;6341796;22;20167;-91
2023/03/16 13:49:21;;;;;;;4.30;2.00;;;8.30;17.70;;;;;;6341834;22;20495;-92
2023/03/16 13:51:51;;;;;;;4.57;2.20;;;8.30;18.20;;;;;;6341321;22;20197;-93
2023/03/16 13:54:23;;;;;;;4.23;2.40;;;8.40;16.60;;;;;;6341868;22;20169;-93
2023/03/16 13:56:51;;;;;;;5.47;2.40;;;8.40;16.80;;;;;;6341836;22;20578;-93
2023/03/16 13:59:19;;;;;;;7.07;3.07;;;8.30;14.80;;;;;;6341610;22;20610;-93
2023/03/16 14:01:47;;;;;;;4.90;2.10;;;8.30;14.40;;;;;;6341636;22;20252;-94
2023/03/16 14:04:19;;;;;;;6.50;2.20;;;8.40;12.70;;;;;;6341938;22;20170;-93
2023/03/16 14:06:55;;;;;;;4.97;2.17;;;8.30;11.80;;;;;;6341755;22;20191;-93
2023/03/16 14:09:25;;;;;;;5.43;2.33;;;8.30;27.90;;;;;;6341393;22;20155;-93
2023/03/16 14:11:53;;;;;;;5.03;2.70;;;8.30;10.50;;;;;;6341831;22;20178;-94
2023/03/16 14:14:25;;;;;;;5.40;2.13;;;8.40;11.10;;;;;;6341292;22;20538;-94
2023/03/16 14:16:53;;;;;;;3.17;2.27;;;8.40;9.60;;;;;;6341541;22;20156;-94
2023/03/16 14:19:23;;;;;;;4.57;2.50;;;8.30;9.00;;;;;;6341296;22;20171;-94
2023/03/16 14:21:50;;;;;;;5.33;2.23;;;8.30;9.00;;;;;;6341375;22;20633;-93
2023/03/16 14:24:28;;;;;;;7.77;2.27;;;8.20;7.70;;;;;;6341877;22;20168;-93
2023/03/16 14:26:55;;;;;;;7.73;2.40;;;8.20;9.30;;;;;;6341187;22;20158;-94
2023/03/16 14:29:27;;;;;;;6.27;2.30;;;8.20;23.10;;;;;;6341557;22;20170;-94
2023/03/16 14:31:54;;;;;;;3.73;2.20;;;8.10;6.60;;;;;;6341615;22;20495;-95
2023/03/16 14:34:27;;;;;;;4.40;2.47;;;8.10;5.90;;;;;;6341199;22;20159;-94
2023/03/16 14:37:05;;;;;;;9.20;2.50;;;8.10;4.80;;;;;;6341842;22;20205;-94
2023/03/16 14:39:33;;;;;;;4.87;2.20;;;8.10;5.30;;;;;;6341358;22;20152;-93
2023/03/16 14:42:02;;;;;;;3.73;2.30;;;8.10;1.90;;;;;;6341213;22;20168;-94
2023/03/16 14:44:32;;;;;;;6.70;2.43;;;8.10;4.90;;;;;;6341041;22;20165;-93
2023/03/16 14:47:01;;;;;;;5.23;2.80;;;8.10;4.50;;;;;;6340991;22;20190;-94
2023/03/16 14:49:30;;;;;;;3.87;2.37;;;8.10;4.20;;;;;;6341111;22;20166;-93
2023/03/16 14:52:00;;;;;;;18.30;9.63;;;8.10;5.60;;;;;;6341221;22;20218;-95
2023/03/16 14:54:28;;;;;;;10.17;5.27;;;8.20;3.60;;;;;;6341085;22;20241;-94
2023/03/16 14:57:00;;;;;;;27.33;10.10;;;8.10;3.40;;;;;;6341285;22;20177;-93
2023/03/16 14:59:27;;;;;;;15.03;5.70;;;8.00;3.40;;;;;;6341657;22;20143;-94
2023/03/16 15:01:58;;;;;;;92.47;29.17;;;7.90;3.30;;;;;;6340940;22;20186;-94
2023/03/16 15:04:28;;;;;;;6.73;3.10;;;7.90;2.60;;;;;;6341313;22;20167;-92
2023/03/16 15:06:55;;;;;;;6.80;2.90;;;7.90;2.70;;;;;;6340689;22;20235;-93
2023/03/16 15:09:35;;;;;;;5.20;2.67;;;7.80;1.00;;;;;;6341174;22;20174;-94
2023/03/16 15:12:04;;;;;;;4.30;2.57;;;7.80;2.30;;;;;;6340551;22;20205;-93
2023/03/16 15:17:16;;;;;;;7.20;2.70;;;7.80;1.10;;;;;;6341002;22;20179;-93
2023/03/16 15:19:43;;;;;;;4.73;2.57;;;7.70;1.50;;;;;;6341439;22;20171;-94
2023/03/16 15:22:12;;;;;;;5.80;2.83;;;7.80;1.00;;;;;;6340846;22;20166;-94
2023/03/16 15:24:39;;;;;;;5.47;3.03;;;7.70;1.30;;;;;;6340182;22;20166;-93
2023/03/16 15:27:18;;;;;;;6.70;2.37;;;7.70;1.00;;;;;;6339614;22;20166;-93
2023/03/16 15:29:45;;;;;;;3.40;2.57;;;7.60;1.70;;;;;;6341048;22;20208;-94
2023/03/16 15:32:14;;;;;;;3.60;2.33;;;7.60;1.00;;;;;;6340661;22;20183;-93
2023/03/16 15:34:41;;;;;;;7.43;2.43;;;7.50;16.80;;;;;;6340724;22;20193;-93
2023/03/16 15:37:12;;;;;;;9.83;3.13;;;7.50;1.00;;;;;;6340459;22;20165;-93
2023/03/16 15:39:39;;;;;;;5.27;2.63;;;7.50;1.50;;;;;;6340572;22;20605;-93
2023/03/16 15:42:15;;;;;;;6.53;2.60;;;7.40;1.00;;;;;;6340477;22;20242;-93
2023/03/16 15:44:42;;;;;;;4.77;2.53;;;7.40;1.00;;;;;;6340978;22;20603;-93
2023/03/16 15:47:09;;;;;;;3.20;2.23;;;7.40;1.00;;;;;;6340299;22;20166;-93
2023/03/16 15:49:36;;;;;;;4.07;2.50;;;7.30;1.00;;;;;;6340546;22;20242;-93
2023/03/16 15:52:06;;;;;;;6.50;2.80;;;7.30;1.00;;;;;;6340403;22;20663;-94
2023/03/16 15:55:14;;;;;;;5.90;2.83;;;7.30;1.00;;;;;;5072600;27;20527;-93
2023/03/16 15:57:41;;;;;;;4.53;2.60;;;7.20;1.00;;;;;;5071880;28;20210;-92
2023/03/16 16:00:26;;;;;;;3.47;2.67;;;7.20;1.00;;;;;;5071750;28;20197;-92
2023/03/16 16:02:53;;;;;;;7.03;2.93;;;7.10;1.00;;;;;;5072107;28;20216;-92
2023/03/16 16:05:20;;;;;;;6.60;2.27;;;7.10;1.00;;;;;;5092119;28;20201;-92
2023/03/16 16:07:47;;;;;;;3.30;2.10;;;7.00;1.00;;;;;;5082098;28;20192;-93
2023/03/16 16:10:16;;;;;;;4.90;2.20;;;7.00;1.00;;;;;;5071324;28;20206;-91
2023/03/16 16:12:49;;;;;;;4.97;2.53;;;6.90;1.00;;;;;;5069960;28;20195;-92
2023/03/16 16:15:20;;;;;;;5.40;2.80;;;6.90;1.00;;;;;;5071671;28;20196;-92
2023/03/16 16:17:48;;;;;;;5.37;3.37;;;6.80;1.40;;;;;;5071359;28;20282;-92
2023/03/16 16:20:20;;;;;;;5.80;2.97;;;6.70;1.50;;;;;;5063190;28;20207;-91
2023/03/16 16:22:47;;;;;;;7.80;3.27;;;6.50;3.90;;;;;;5060924;28;20263;-92
2023/03/16 16:25:16;;;;;;;5.47;2.90;;;6.50;6.10;;;;;;5063652;28;20201;-90
2023/03/16 16:27:43;;;;;;;5.43;3.00;;;6.30;7.40;;;;;;5070777;28;20609;-91
2023/03/16 16:30:19;;;;;;;5.80;3.13;;;6.20;9.80;;;;;;5071699;28;20204;-91
2023/03/16 16:32:46;;;;;;;5.83;3.30;;;6.10;12.70;;;;;;5068050;28;20693;-92
2023/03/16 16:35:14;;;;;;;4.23;3.23;;;5.90;13.60;;;;;;5072084;28;20200;-93
2023/03/16 16:37:43;;;;;;;6.67;3.10;;;5.90;17.30;;;;;;5088086;28;20202;-93
2023/03/16 16:40:17;;;;;;;5.40;2.93;;;5.80;19.40;;;;;;5071409;28;20198;-93
2023/03/16 16:42:44;;;;;;;4.17;2.70;;;5.70;25.80;;;;;;5067619;28;20189;-92
2023/03/16 16:45:16;;;;;;;6.60;3.00;;;5.60;31.50;;;;;;5051634;28;20193;-92
2023/03/16 16:47:43;;;;;;;7.17;2.80;;;5.40;36.90;;;;;;5062202;28;20248;-93
2023/03/16 16:50:19;;;;;;;4.30;2.83;;;5.30;37.00;;;;;;5064022;28;20213;-91
2023/03/16 16:52:47;;;;;;;4.60;3.00;;;5.20;42.80;;;;;;5050456;28;20183;-93
2023/03/16 16:55:16;;;;;;;5.87;2.93;;;5.10;48.00;;;;;;5050862;28;20214;-90
2023/03/16 16:57:43;;;;;;;7.10;2.87;;;5.00;61.70;;;;;;5056243;28;20194;-92
2023/03/16 17:00:21;;;;;;;5.43;3.00;;;4.80;81.10;;;;;;5070503;28;20201;-91
2023/03/16 17:02:52;;;;;;;5.77;2.90;;;4.70;97.10;;;;;;5070082;28;20736;-93
2023/03/16 17:05:21;;;;;;;5.57;2.60;;;4.60;99.90;;;;;;5055725;28;20652;-92
2023/03/16 17:07:49;;;;;;;4.83;2.87;;;4.40;99.90;;;;;;5040883;28;20206;-89
2023/03/16 17:10:20;;;;;;;6.60;2.93;;;4.30;99.90;;;;;;5037373;28;20194;-93
2023/03/16 17:12:48;;;;;;;6.50;2.80;;;4.10;99.90;;;;;;5045619;28;20562;-90
2023/03/16 17:15:24;;;;;;;4.93;2.80;;;4.00;99.90;;;;;;5050784;28;20680;-90
2023/03/16 17:17:52;;;;;;;8.03;3.00;;;3.80;99.90;;;;;;5060694;28;20179;-92
2023/03/16 17:20:20;;;;;;;6.03;2.90;;;3.70;99.90;;;;;;5077104;28;20195;-92
2023/03/16 17:22:47;;;;;;;6.03;2.90;;;3.60;99.90;;;;;;5073094;28;20200;-92
2023/03/16 17:25:15;;;;;;;4.57;3.00;;;3.50;99.90;;;;;;5056747;28;20192;-91
2023/03/16 17:27:46;;;;;;;6.37;3.00;;;3.40;99.90;;;;;;5056740;28;20258;-91
2023/03/16 17:30:24;;;;;;;5.43;2.70;;;3.30;99.90;;;;;;5056795;28;20188;-92
2023/03/16 17:32:52;;;;;;;7.60;3.10;;;3.20;99.90;;;;;;5065103;28;20176;-90
2023/03/16 17:35:19;;;;;;;5.43;2.73;;;3.10;99.90;;;;;;5051160;28;20248;-94
2023/03/16 17:37:47;;;;;;;5.87;2.77;;;3.00;99.90;;;;;;5053711;28;20687;-96
2023/03/16 17:40:24;;;;;;;4.00;3.10;;;3.00;99.90;;;;;;5040262;28;20259;-93
2023/03/16 17:42:54;;;;;;;5.03;3.00;;;2.90;99.90;;;;;;5070548;28;20195;-94
2023/03/16 17:45:25;;;;;;;3.97;2.60;;;2.90;99.90;;;;;;5065657;28;20637;-93
2023/03/16 17:47:53;;;;;;;4.57;2.40;;;2.80;99.90;;;;;;5055465;28;20266;-93
2023/03/16 17:50:23;;;;;;;5.17;2.70;;;2.70;99.90;;;;;;5054276;28;20200;-92
2023/03/16 17:52:51;;;;;;;7.37;2.63;;;2.70;99.90;;;;;;5050555;28;20195;-92
2023/03/16 17:55:20;;;;;;;6.00;2.80;;;2.60;99.90;;;;;;5036614;28;20224;-93
2023/03/16 17:57:49;;;;;;;7.57;2.90;;;2.50;99.90;;;;;;5044106;28;20195;-93
2023/03/16 18:00:25;;;;;;;5.03;2.70;;;2.40;99.90;;;;;;5056108;28;20199;-94
2023/03/16 18:02:58;;;;;;;5.97;2.57;;;2.40;99.90;;;;;;5043861;28;20205;-93
2023/03/16 18:05:31;;;;;;;7.10;3.30;;;2.30;99.90;;;;;;5041723;28;20193;-91
2023/03/16 18:08:03;;;;;;;6.90;3.07;;;2.30;99.90;;;;;;5052588;28;20261;-92
2023/03/16 18:10:32;;;;;;;4.30;2.53;;;2.20;99.90;;;;;;5035860;28;20204;-91
2023/03/16 18:13:03;;;;;;;6.30;3.23;;;2.20;99.90;;;;;;5052655;28;20200;-91
2023/03/16 18:15:35;;;;;;;3.27;2.30;;;2.20;99.90;;;;;;5037854;28;20589;-92
2023/03/16 18:18:04;;;;;;;6.80;2.90;;;2.20;99.90;;;;;;5046405;28;20218;-92
2023/03/16 18:20:34;;;;;;;5.40;2.40;;;2.20;99.90;;;;;;5054280;28;20197;-90
2023/03/16 18:23:09;;;;;;;7.43;2.90;;;2.20;99.90;;;;;;5055430;28;20691;-91
2023/03/16 18:25:38;;;;;;;4.50;2.67;;;2.10;99.90;;;;;;5051427;28;20203;-90
2023/03/16 18:28:07;;;;;;;4.03;2.50;;;2.10;99.90;;;;;;5055199;28;20252;-93
2023/03/16 18:30:37;;;;;;;4.80;2.30;;;2.00;99.90;;;;;;5055060;28;20202;-91
2023/03/16 18:33:06;;;;;;;5.47;2.63;;;2.10;99.90;;;;;;5054352;28;20196;-92
2023/03/16 18:35:34;;;;;;;5.00;2.40;;;2.10;99.90;;;;;;5040278;28;20223;-91
2023/03/16 18:38:00;;;;;;;5.50;2.40;;;2.20;99.90;;;;;;5039407;28;20241;-91
2023/03/16 18:40:27;;;;;;;5.67;2.30;;;2.20;99.90;;;;;;5046068;28;20209;-90
2023/03/16 18:42:54;;;;;;;6.37;2.40;;;2.30;99.90;;;;;;5038207;28;20228;-92
2023/03/16 18:45:22;;;;;;;3.83;2.07;;;2.30;99.90;;;;;;5055143;28;20290;-92
2023/03/16 18:47:56;;;;;;;5.27;2.63;;;2.30;99.90;;;;;;5064051;28;20192;-93
2023/03/16 18:50:26;;;;;;;4.10;2.40;;;2.30;99.90;;;;;;5035927;28;20198;-94
2023/03/16 18:52:54;;;;;;;3.10;2.27;;;2.40;99.90;;;;;;5045816;28;20284;-94
2023/03/16 18:55:22;;;;;;;4.93;2.67;;;2.30;99.90;;;;;;5041755;28;20281;-94
2023/03/16 18:57:55;;;;;;;6.20;2.50;;;2.30;99.90;;;;;;5035162;28;20210;-94
2023/03/16 19:00:23;;;;;;;4.03;2.50;;;2.30;99.90;;;;;;5035337;28;20198;-92
2023/03/16 19:02:55;;;;;;;8.60;2.40;;;2.40;99.90;;;;;;5055122;28;20206;-94
2023/03/16 19:05:28;;;;;;;4.97;2.50;;;2.30;99.90;;;;;;5054523;28;20191;-92
2023/03/16 19:07:55;;;;;;;3.30;2.10;;;2.40;99.90;;;;;;5045895;28;20332;-94
2023/03/16 19:10:25;;;;;;;6.50;2.50;;;2.40;99.90;;;;;;5054692;28;20201;-95
2023/03/16 19:12:52;;;;;;;5.03;2.33;;;2.40;99.90;;;;;;5053758;28;20206;-94
2023/03/16 19:15:22;;;;;;;4.80;2.53;;;2.40;99.90;;;;;;5052419;28;20220;-94
2023/03/16 19:17:49;;;;;;;4.47;2.50;;;2.40;99.90;;;;;;5046763;28;20211;-94